sensor_id;sensor_type;location;lat;lon;timestamp;P1;durP1;ratioP1;P2;durP2;ratioP2
78169;SDS011;67412;49.892;14.490;2023-05-07T00:02:20;17.17;;;6.20;;
78169;SDS011;67412;49.892;14.490;2023-05-07T00:04:45;15.90;;;6.43;;
78169;SDS011;67412;49.892;14.490;2023-05-07T00:07:11;15.95;;;7.18;;
78169;SDS011;67412;49.892;14.490;2023-05-07T00:09:36;14.52;;;5.85;;
78169;SDS011;67412;49.892;14.490;2023-05-07T00:12:01;16.55;;;6.85;;
78169;SDS011;67412;49.892;14.490;2023-05-07T00:14:27;16.30;;;6.88;;
78169;SDS011;67412;49.892;14.490;2023-05-07T00:16:52;14.40;;;5.85;;
78169;SDS011;67412;49.892;14.490;2023-05-07T00:19:18;16.33;;;6.90;;
78169;SDS011;67412;49.892;14.490;2023-05-07T00:21:43;14.57;;;6.20;;
78169;SDS011;67412;49.892;14.490;2023-05-07T00:24:08;14.32;;;6.07;;
78169;SDS011;67412;49.892;14.490;2023-05-07T00:26:34;15.45;;;6.20;;
78169;SDS011;67412;49.892;14.490;2023-05-07T00:28:59;14.85;;;6.25;;
78169;SDS011;67412;49.892;14.490;2023-05-07T00:31:24;14.18;;;5.95;;
78169;SDS011;67412;49.892;14.490;2023-05-07T00:33:50;14.18;;;5.78;;
78169;SDS011;67412;49.892;14.490;2023-05-07T00:36:15;15.30;;;6.43;;
78169;SDS011;67412;49.892;14.490;2023-05-07T00:38:40;18.30;;;6.18;;
78169;SDS011;67412;49.892;14.490;2023-05-07T00:41:06;16.45;;;6.30;;
78169;SDS011;67412;49.892;14.490;2023-05-07T00:43:31;16.38;;;7.00;;
78169;SDS011;67412;49.892;14.490;2023-05-07T00:45:57;16.30;;;6.82;;
78169;SDS011;67412;49.892;14.490;2023-05-07T00:48:22;17.95;;;6.53;;
78169;SDS011;67412;49.892;14.490;2023-05-07T00:50:49;16.85;;;6.45;;
78169;SDS011;67412;49.892;14.490;2023-05-07T00:53:15;16.35;;;7.10;;
78169;SDS011;67412;49.892;14.490;2023-05-07T00:55:40;15.57;;;6.30;;
78169;SDS011;67412;49.892;14.490;2023-05-07T00:58:06;18.38;;;7.60;;
78169;SDS011;67412;49.892;14.490;2023-05-07T01:00:31;17.77;;;7.68;;
78169;SDS011;67412;49.892;14.490;2023-05-07T01:02:57;20.30;;;7.55;;
78169;SDS011;67412;49.892;14.490;2023-05-07T01:05:23;15.93;;;7.15;;
78169;SDS011;67412;49.892;14.490;2023-05-07T01:07:49;17.92;;;7.35;;
78169;SDS011;67412;49.892;14.490;2023-05-07T01:10:16;17.45;;;7.10;;
78169;SDS011;67412;49.892;14.490;2023-05-07T01:12:42;18.00;;;7.22;;
78169;SDS011;67412;49.892;14.490;2023-05-07T01:15:10;19.27;;;7.60;;
78169;SDS011;67412;49.892;14.490;2023-05-07T01:17:36;17.35;;;6.97;;
78169;SDS011;67412;49.892;14.490;2023-05-07T01:20:06;15.63;;;6.90;;
78169;SDS011;67412;49.892;14.490;2023-05-07T01:22:32;16.83;;;6.80;;
78169;SDS011;67412;49.892;14.490;2023-05-07T01:24:59;18.38;;;6.95;;
78169;SDS011;67412;49.892;14.490;2023-05-07T01:27:26;18.27;;;7.55;;
78169;SDS011;67412;49.892;14.490;2023-05-07T01:29:51;16.10;;;6.40;;
78169;SDS011;67412;49.892;14.490;2023-05-07T01:32:17;17.80;;;7.88;;
78169;SDS011;67412;49.892;14.490;2023-05-07T01:34:46;17.15;;;6.68;;
78169;SDS011;67412;49.892;14.490;2023-05-07T01:37:14;17.17;;;6.72;;
78169;SDS011;67412;49.892;14.490;2023-05-07T01:39:40;19.38;;;7.07;;
78169;SDS011;67412;49.892;14.490;2023-05-07T01:42:08;15.13;;;6.47;;
78169;SDS011;67412;49.892;14.490;2023-05-07T01:44:33;19.67;;;7.38;;
78169;SDS011;67412;49.892;14.490;2023-05-07T01:46:58;17.30;;;6.90;;
78169;SDS011;67412;49.892;14.490;2023-05-07T01:49:24;16.33;;;6.93;;
78169;SDS011;67412;49.892;14.490;2023-05-07T01:51:50;17.83;;;6.93;;
78169;SDS011;67412;49.892;14.490;2023-05-07T01:54:16;17.33;;;6.80;;
78169;SDS011;67412;49.892;14.490;2023-05-07T01:56:41;16.52;;;6.30;;
78169;SDS011;67412;49.892;14.490;2023-05-07T01:59:07;16.35;;;6.38;;
78169;SDS011;67412;49.892;14.490;2023-05-07T02:01:32;17.08;;;6.53;;
78169;SDS011;67412;49.892;14.490;2023-05-07T02:03:57;13.82;;;5.82;;
78169;SDS011;67412;49.892;14.490;2023-05-07T02:06:23;17.92;;;6.63;;
78169;SDS011;67412;49.892;14.490;2023-05-07T02:08:48;15.48;;;6.40;;
78169;SDS011;67412;49.892;14.490;2023-05-07T02:11:13;14.13;;;6.55;;
78169;SDS011;67412;49.892;14.490;2023-05-07T02:13:39;14.13;;;6.72;;
78169;SDS011;67412;49.892;14.490;2023-05-07T02:16:04;15.63;;;6.15;;
78169;SDS011;67412;49.892;14.490;2023-05-07T02:18:30;15.50;;;5.82;;
78169;SDS011;67412;49.892;14.490;2023-05-07T02:20:56;14.73;;;5.65;;
78169;SDS011;67412;49.892;14.490;2023-05-07T02:23:22;15.88;;;5.90;;
78169;SDS011;67412;49.892;14.490;2023-05-07T02:25:47;15.75;;;5.85;;
78169;SDS011;67412;49.892;14.490;2023-05-07T02:28:12;15.95;;;6.03;;
78169;SDS011;67412;49.892;14.490;2023-05-07T02:30:38;14.27;;;5.53;;
78169;SDS011;67412;49.892;14.490;2023-05-07T02:33:03;13.38;;;5.63;;
78169;SDS011;67412;49.892;14.490;2023-05-07T02:35:28;14.60;;;5.90;;
78169;SDS011;67412;49.892;14.490;2023-05-07T02:37:54;14.05;;;6.45;;
78169;SDS011;67412;49.892;14.490;2023-05-07T02:40:19;17.17;;;6.40;;
78169;SDS011;67412;49.892;14.490;2023-05-07T02:42:44;16.45;;;6.45;;
78169;SDS011;67412;49.892;14.490;2023-05-07T02:45:10;14.20;;;5.70;;
78169;SDS011;67412;49.892;14.490;2023-05-07T02:47:35;14.52;;;6.57;;
78169;SDS011;67412;49.892;14.490;2023-05-07T02:50:01;14.32;;;6.30;;
78169;SDS011;67412;49.892;14.490;2023-05-07T02:52:26;14.68;;;5.97;;
78169;SDS011;67412;49.892;14.490;2023-05-07T02:54:52;15.10;;;6.25;;
78169;SDS011;67412;49.892;14.490;2023-05-07T02:57:17;15.35;;;6.15;;
78169;SDS011;67412;49.892;14.490;2023-05-07T02:59:42;16.63;;;6.53;;
78169;SDS011;67412;49.892;14.490;2023-05-07T03:02:08;13.48;;;5.30;;
78169;SDS011;67412;49.892;14.490;2023-05-07T03:04:33;14.80;;;5.88;;
78169;SDS011;67412;49.892;14.490;2023-05-07T03:06:59;13.20;;;5.65;;
78169;SDS011;67412;49.892;14.490;2023-05-07T03:09:24;14.63;;;6.25;;
78169;SDS011;67412;49.892;14.490;2023-05-07T03:11:49;17.50;;;6.85;;
78169;SDS011;67412;49.892;14.490;2023-05-07T03:14:15;14.38;;;7.00;;
78169;SDS011;67412;49.892;14.490;2023-05-07T03:16:40;17.13;;;6.93;;
78169;SDS011;67412;49.892;14.490;2023-05-07T03:19:05;15.68;;;5.88;;
78169;SDS011;67412;49.892;14.490;2023-05-07T03:21:31;15.32;;;6.05;;
78169;SDS011;67412;49.892;14.490;2023-05-07T03:23:58;18.10;;;7.60;;
78169;SDS011;67412;49.892;14.490;2023-05-07T03:26:24;12.32;;;5.75;;
78169;SDS011;67412;49.892;14.490;2023-05-07T03:28:50;14.43;;;5.55;;
78169;SDS011;67412;49.892;14.490;2023-05-07T03:31:15;18.63;;;6.07;;
78169;SDS011;67412;49.892;14.490;2023-05-07T03:33:51;13.13;;;6.13;;
78169;SDS011;67412;49.892;14.490;2023-05-07T03:36:22;15.05;;;5.80;;
78169;SDS011;67412;49.892;14.490;2023-05-07T03:38:48;14.35;;;6.85;;
78169;SDS011;67412;49.892;14.490;2023-05-07T03:41:14;15.68;;;6.75;;
78169;SDS011;67412;49.892;14.490;2023-05-07T03:43:40;18.08;;;6.18;;
78169;SDS011;67412;49.892;14.490;2023-05-07T03:46:05;15.65;;;6.30;;
78169;SDS011;67412;49.892;14.490;2023-05-07T03:48:30;18.58;;;7.07;;
78169;SDS011;67412;49.892;14.490;2023-05-07T03:50:56;16.67;;;6.88;;
78169;SDS011;67412;49.892;14.490;2023-05-07T03:53:22;17.85;;;6.70;;
78169;SDS011;67412;49.892;14.490;2023-05-07T03:55:48;16.98;;;7.50;;
78169;SDS011;67412;49.892;14.490;2023-05-07T03:58:13;16.15;;;6.20;;
78169;SDS011;67412;49.892;14.490;2023-05-07T04:00:38;17.35;;;7.30;;
78169;SDS011;67412;49.892;14.490;2023-05-07T04:03:05;18.60;;;6.80;;
78169;SDS011;67412;49.892;14.490;2023-05-07T04:05:30;15.88;;;7.55;;
78169;SDS011;67412;49.892;14.490;2023-05-07T04:07:57;14.45;;;6.35;;
78169;SDS011;67412;49.892;14.490;2023-05-07T04:10:26;14.95;;;6.32;;
78169;SDS011;67412;49.892;14.490;2023-05-07T04:12:53;13.50;;;5.65;;
78169;SDS011;67412;49.892;14.490;2023-05-07T04:15:18;13.95;;;6.00;;
78169;SDS011;67412;49.892;14.490;2023-05-07T04:17:44;15.18;;;5.88;;
78169;SDS011;67412;49.892;14.490;2023-05-07T04:20:10;13.93;;;5.60;;
78169;SDS011;67412;49.892;14.490;2023-05-07T04:22:37;11.63;;;4.45;;
78169;SDS011;67412;49.892;14.490;2023-05-07T04:25:03;13.45;;;4.75;;
78169;SDS011;67412;49.892;14.490;2023-05-07T04:27:28;12.35;;;4.78;;
78169;SDS011;67412;49.892;14.490;2023-05-07T04:29:54;10.60;;;4.47;;
78169;SDS011;67412;49.892;14.490;2023-05-07T04:32:20;10.00;;;4.40;;
78169;SDS011;67412;49.892;14.490;2023-05-07T04:34:46;10.38;;;4.30;;
78169;SDS011;67412;49.892;14.490;2023-05-07T04:37:11;14.73;;;5.35;;
78169;SDS011;67412;49.892;14.490;2023-05-07T04:39:37;13.95;;;5.32;;
78169;SDS011;67412;49.892;14.490;2023-05-07T04:42:02;11.15;;;4.90;;
78169;SDS011;67412;49.892;14.490;2023-05-07T04:44:28;12.43;;;4.88;;
78169;SDS011;67412;49.892;14.490;2023-05-07T04:46:55;13.20;;;4.68;;
78169;SDS011;67412;49.892;14.490;2023-05-07T04:49:21;12.07;;;4.25;;
78169;SDS011;67412;49.892;14.490;2023-05-07T04:51:46;11.05;;;4.43;;
78169;SDS011;67412;49.892;14.490;2023-05-07T04:54:11;11.30;;;4.57;;
78169;SDS011;67412;49.892;14.490;2023-05-07T04:56:37;13.40;;;5.43;;
78169;SDS011;67412;49.892;14.490;2023-05-07T04:59:02;14.75;;;5.75;;
78169;SDS011;67412;49.892;14.490;2023-05-07T05:01:27;13.75;;;5.70;;
78169;SDS011;67412;49.892;14.490;2023-05-07T05:03:53;11.10;;;5.05;;
78169;SDS011;67412;49.892;14.490;2023-05-07T05:06:18;13.85;;;5.57;;
78169;SDS011;67412;49.892;14.490;2023-05-07T05:08:43;12.75;;;5.22;;
78169;SDS011;67412;49.892;14.490;2023-05-07T05:11:09;15.18;;;5.60;;
78169;SDS011;67412;49.892;14.490;2023-05-07T05:13:34;16.90;;;6.45;;
78169;SDS011;67412;49.892;14.490;2023-05-07T05:16:00;15.65;;;5.25;;
78169;SDS011;67412;49.892;14.490;2023-05-07T05:18:25;16.02;;;5.63;;
78169;SDS011;67412;49.892;14.490;2023-05-07T05:20:51;17.63;;;6.18;;
78169;SDS011;67412;49.892;14.490;2023-05-07T05:23:16;15.25;;;6.13;;
78169;SDS011;67412;49.892;14.490;2023-05-07T05:25:41;12.55;;;5.63;;
78169;SDS011;67412;49.892;14.490;2023-05-07T05:28:07;13.02;;;5.05;;
78169;SDS011;67412;49.892;14.490;2023-05-07T05:30:32;15.30;;;5.00;;
78169;SDS011;67412;49.892;14.490;2023-05-07T05:32:58;12.88;;;4.82;;
78169;SDS011;67412;49.892;14.490;2023-05-07T05:35:23;13.45;;;5.40;;
78169;SDS011;67412;49.892;14.490;2023-05-07T05:37:48;12.98;;;5.38;;
78169;SDS011;67412;49.892;14.490;2023-05-07T05:40:13;11.80;;;5.20;;
78169;SDS011;67412;49.892;14.490;2023-05-07T05:42:39;12.82;;;4.97;;
78169;SDS011;67412;49.892;14.490;2023-05-07T05:45:04;14.30;;;5.18;;
78169;SDS011;67412;49.892;14.490;2023-05-07T05:47:30;12.80;;;4.95;;
78169;SDS011;67412;49.892;14.490;2023-05-07T05:49:56;11.60;;;4.43;;
78169;SDS011;67412;49.892;14.490;2023-05-07T05:52:21;11.35;;;5.25;;
78169;SDS011;67412;49.892;14.490;2023-05-07T05:54:48;10.85;;;4.20;;
78169;SDS011;67412;49.892;14.490;2023-05-07T05:57:14;11.07;;;4.35;;
78169;SDS011;67412;49.892;14.490;2023-05-07T05:59:39;10.73;;;4.53;;
78169;SDS011;67412;49.892;14.490;2023-05-07T06:02:05;9.02;;;3.47;;
78169;SDS011;67412;49.892;14.490;2023-05-07T06:04:31;10.82;;;4.65;;
78169;SDS011;67412;49.892;14.490;2023-05-07T06:06:56;10.50;;;4.53;;
78169;SDS011;67412;49.892;14.490;2023-05-07T06:09:22;9.93;;;4.35;;
78169;SDS011;67412;49.892;14.490;2023-05-07T06:11:47;9.88;;;3.45;;
78169;SDS011;67412;49.892;14.490;2023-05-07T06:14:12;9.63;;;4.00;;
78169;SDS011;67412;49.892;14.490;2023-05-07T06:16:38;9.70;;;3.88;;
78169;SDS011;67412;49.892;14.490;2023-05-07T06:19:03;9.32;;;3.58;;
78169;SDS011;67412;49.892;14.490;2023-05-07T06:21:28;9.90;;;4.10;;
78169;SDS011;67412;49.892;14.490;2023-05-07T06:23:54;7.90;;;3.33;;
78169;SDS011;67412;49.892;14.490;2023-05-07T06:26:20;8.65;;;3.10;;
78169;SDS011;67412;49.892;14.490;2023-05-07T06:28:45;9.65;;;3.60;;
78169;SDS011;67412;49.892;14.490;2023-05-07T06:31:11;8.20;;;3.30;;
78169;SDS011;67412;49.892;14.490;2023-05-07T06:33:41;8.90;;;3.47;;
78169;SDS011;67412;49.892;14.490;2023-05-07T06:36:07;10.57;;;4.03;;
78169;SDS011;67412;49.892;14.490;2023-05-07T06:38:32;10.45;;;3.92;;
78169;SDS011;67412;49.892;14.490;2023-05-07T06:40:57;10.02;;;3.80;;
78169;SDS011;67412;49.892;14.490;2023-05-07T06:43:23;9.23;;;4.03;;
78169;SDS011;67412;49.892;14.490;2023-05-07T06:45:48;11.55;;;3.78;;
78169;SDS011;67412;49.892;14.490;2023-05-07T06:48:13;9.18;;;3.95;;
78169;SDS011;67412;49.892;14.490;2023-05-07T06:50:38;9.40;;;4.10;;
78169;SDS011;67412;49.892;14.490;2023-05-07T06:53:04;10.65;;;4.13;;
78169;SDS011;67412;49.892;14.490;2023-05-07T06:55:29;10.32;;;4.20;;
78169;SDS011;67412;49.892;14.490;2023-05-07T06:57:54;10.50;;;4.10;;
78169;SDS011;67412;49.892;14.490;2023-05-07T07:00:20;10.07;;;4.00;;
78169;SDS011;67412;49.892;14.490;2023-05-07T07:02:45;11.43;;;4.35;;
78169;SDS011;67412;49.892;14.490;2023-05-07T07:05:10;9.00;;;4.20;;
78169;SDS011;67412;49.892;14.490;2023-05-07T07:07:36;10.35;;;4.32;;
78169;SDS011;67412;49.892;14.490;2023-05-07T07:10:01;12.25;;;3.97;;
78169;SDS011;67412;49.892;14.490;2023-05-07T07:12:29;9.43;;;4.13;;
78169;SDS011;67412;49.892;14.490;2023-05-07T07:14:54;10.23;;;3.95;;
78169;SDS011;67412;49.892;14.490;2023-05-07T07:17:20;12.52;;;5.13;;
78169;SDS011;67412;49.892;14.490;2023-05-07T07:19:45;10.55;;;4.03;;
78169;SDS011;67412;49.892;14.490;2023-05-07T07:22:11;9.75;;;4.38;;
78169;SDS011;67412;49.892;14.490;2023-05-07T07:24:36;10.18;;;3.80;;
78169;SDS011;67412;49.892;14.490;2023-05-07T07:27:01;10.23;;;4.10;;
78169;SDS011;67412;49.892;14.490;2023-05-07T07:29:27;13.30;;;4.60;;
78169;SDS011;67412;49.892;14.490;2023-05-07T07:31:52;11.48;;;4.63;;
78169;SDS011;67412;49.892;14.490;2023-05-07T07:34:17;9.15;;;3.75;;
78169;SDS011;67412;49.892;14.490;2023-05-07T07:36:43;10.75;;;4.38;;
78169;SDS011;67412;49.892;14.490;2023-05-07T07:39:08;10.30;;;4.15;;
78169;SDS011;67412;49.892;14.490;2023-05-07T07:41:33;9.65;;;4.00;;
78169;SDS011;67412;49.892;14.490;2023-05-07T07:43:59;10.40;;;4.20;;
78169;SDS011;67412;49.892;14.490;2023-05-07T07:46:24;11.60;;;4.97;;
78169;SDS011;67412;49.892;14.490;2023-05-07T07:48:49;8.55;;;3.47;;
78169;SDS011;67412;49.892;14.490;2023-05-07T07:51:15;8.77;;;3.85;;
78169;SDS011;67412;49.892;14.490;2023-05-07T07:53:40;9.83;;;4.30;;
78169;SDS011;67412;49.892;14.490;2023-05-07T07:56:06;9.93;;;4.35;;
78169;SDS011;67412;49.892;14.490;2023-05-07T07:58:31;10.98;;;4.43;;
78169;SDS011;67412;49.892;14.490;2023-05-07T08:00:57;9.20;;;4.13;;
78169;SDS011;67412;49.892;14.490;2023-05-07T08:03:22;9.25;;;3.50;;
78169;SDS011;67412;49.892;14.490;2023-05-07T08:05:48;8.30;;;3.55;;
78169;SDS011;67412;49.892;14.490;2023-05-07T08:08:15;9.38;;;3.45;;
78169;SDS011;67412;49.892;14.490;2023-05-07T08:10:40;10.65;;;3.85;;
78169;SDS011;67412;49.892;14.490;2023-05-07T08:13:06;10.25;;;4.20;;
78169;SDS011;67412;49.892;14.490;2023-05-07T08:15:31;8.88;;;3.63;;
78169;SDS011;67412;49.892;14.490;2023-05-07T08:17:57;10.48;;;4.57;;
78169;SDS011;67412;49.892;14.490;2023-05-07T08:20:24;9.45;;;3.80;;
78169;SDS011;67412;49.892;14.490;2023-05-07T08:22:50;9.85;;;4.10;;
78169;SDS011;67412;49.892;14.490;2023-05-07T08:25:16;10.20;;;3.95;;
78169;SDS011;67412;49.892;14.490;2023-05-07T08:27:41;8.57;;;3.63;;
78169;SDS011;67412;49.892;14.490;2023-05-07T08:30:07;10.15;;;4.45;;
78169;SDS011;67412;49.892;14.490;2023-05-07T08:32:33;10.38;;;4.40;;
78169;SDS011;67412;49.892;14.490;2023-05-07T08:34:58;10.15;;;3.80;;
78169;SDS011;67412;49.892;14.490;2023-05-07T08:37:24;8.57;;;3.38;;
78169;SDS011;67412;49.892;14.490;2023-05-07T08:39:49;8.65;;;3.40;;
78169;SDS011;67412;49.892;14.490;2023-05-07T08:42:15;10.38;;;4.25;;
78169;SDS011;67412;49.892;14.490;2023-05-07T08:44:41;8.40;;;3.60;;
78169;SDS011;67412;49.892;14.490;2023-05-07T08:47:11;9.10;;;3.67;;
78169;SDS011;67412;49.892;14.490;2023-05-07T08:49:37;8.52;;;3.40;;
78169;SDS011;67412;49.892;14.490;2023-05-07T08:52:03;8.77;;;3.22;;
78169;SDS011;67412;49.892;14.490;2023-05-07T08:54:28;7.93;;;2.72;;
78169;SDS011;67412;49.892;14.490;2023-05-07T08:56:54;9.07;;;3.60;;
78169;SDS011;67412;49.892;14.490;2023-05-07T08:59:19;9.02;;;3.22;;
78169;SDS011;67412;49.892;14.490;2023-05-07T09:01:45;9.18;;;3.30;;
78169;SDS011;67412;49.892;14.490;2023-05-07T09:04:10;7.97;;;3.53;;
78169;SDS011;67412;49.892;14.490;2023-05-07T09:06:37;8.98;;;3.40;;
78169;SDS011;67412;49.892;14.490;2023-05-07T09:09:06;8.82;;;3.95;;
78169;SDS011;67412;49.892;14.490;2023-05-07T09:11:32;9.35;;;4.00;;
78169;SDS011;67412;49.892;14.490;2023-05-07T09:13:57;12.43;;;4.40;;
78169;SDS011;67412;49.892;14.490;2023-05-07T09:16:26;9.13;;;3.67;;
78169;SDS011;67412;49.892;14.490;2023-05-07T09:18:52;8.23;;;3.80;;
78169;SDS011;67412;49.892;14.490;2023-05-07T09:21:19;8.90;;;3.63;;
78169;SDS011;67412;49.892;14.490;2023-05-07T09:23:47;9.40;;;3.88;;
78169;SDS011;67412;49.892;14.490;2023-05-07T09:26:13;11.70;;;4.65;;
78169;SDS011;67412;49.892;14.490;2023-05-07T09:28:39;8.85;;;3.50;;
78169;SDS011;67412;49.892;14.490;2023-05-07T09:31:09;7.80;;;3.53;;
78169;SDS011;67412;49.892;14.490;2023-05-07T09:36:04;9.05;;;3.47;;
78169;SDS011;67412;49.892;14.490;2023-05-07T09:38:31;8.65;;;3.47;;
78169;SDS011;67412;49.892;14.490;2023-05-07T09:41:05;8.70;;;3.60;;
78169;SDS011;67412;49.892;14.490;2023-05-07T09:43:35;9.55;;;3.75;;
78169;SDS011;67412;49.892;14.490;2023-05-07T09:46:06;8.77;;;3.88;;
78169;SDS011;67412;49.892;14.490;2023-05-07T09:48:37;9.60;;;4.20;;
78169;SDS011;67412;49.892;14.490;2023-05-07T09:51:06;9.75;;;4.15;;
78169;SDS011;67412;49.892;14.490;2023-05-07T09:53:43;9.48;;;4.38;;
78169;SDS011;67412;49.892;14.490;2023-05-07T09:56:11;10.35;;;4.05;;
78169;SDS011;67412;49.892;14.490;2023-05-07T09:58:38;9.00;;;4.28;;
78169;SDS011;67412;49.892;14.490;2023-05-07T10:01:06;8.98;;;3.75;;
78169;SDS011;67412;49.892;14.490;2023-05-07T10:03:32;9.75;;;4.40;;
78169;SDS011;67412;49.892;14.490;2023-05-07T10:06:00;9.38;;;3.95;;
78169;SDS011;67412;49.892;14.490;2023-05-07T10:08:25;9.30;;;4.03;;
78169;SDS011;67412;49.892;14.490;2023-05-07T10:10:52;9.77;;;4.20;;
78169;SDS011;67412;49.892;14.490;2023-05-07T10:13:19;9.25;;;4.18;;
78169;SDS011;67412;49.892;14.490;2023-05-07T10:15:44;11.30;;;4.25;;
78169;SDS011;67412;49.892;14.490;2023-05-07T10:18:10;10.30;;;4.40;;
78169;SDS011;67412;49.892;14.490;2023-05-07T10:23:04;9.90;;;4.00;;
78169;SDS011;67412;49.892;14.490;2023-05-07T10:25:30;10.05;;;4.20;;
78169;SDS011;67412;49.892;14.490;2023-05-07T10:27:57;10.00;;;4.20;;
78169;SDS011;67412;49.892;14.490;2023-05-07T10:33:13;11.35;;;5.22;;
78169;SDS011;67412;49.892;14.490;2023-05-07T10:35:42;10.70;;;4.32;;
78169;SDS011;67412;49.892;14.490;2023-05-07T10:38:10;10.48;;;4.65;;
78169;SDS011;67412;49.892;14.490;2023-05-07T10:40:35;10.02;;;4.32;;
78169;SDS011;67412;49.892;14.490;2023-05-07T10:43:02;10.77;;;4.80;;
78169;SDS011;67412;49.892;14.490;2023-05-07T10:45:30;10.00;;;3.80;;
78169;SDS011;67412;49.892;14.490;2023-05-07T10:50:33;9.77;;;4.40;;
78169;SDS011;67412;49.892;14.490;2023-05-07T10:55:46;9.45;;;4.30;;
78169;SDS011;67412;49.892;14.490;2023-05-07T11:00:49;10.18;;;4.50;;
78169;SDS011;67412;49.892;14.490;2023-05-07T11:03:14;9.30;;;4.13;;
78169;SDS011;67412;49.892;14.490;2023-05-07T11:05:40;9.38;;;4.35;;
78169;SDS011;67412;49.892;14.490;2023-05-07T11:08:07;9.50;;;3.60;;
78169;SDS011;67412;49.892;14.490;2023-05-07T11:13:17;10.57;;;3.70;;
78169;SDS011;67412;49.892;14.490;2023-05-07T11:15:47;9.95;;;4.25;;
78169;SDS011;67412;49.892;14.490;2023-05-07T11:18:14;8.95;;;4.20;;
78169;SDS011;67412;49.892;14.490;2023-05-07T11:26:00;9.02;;;4.05;;
78169;SDS011;67412;49.892;14.490;2023-05-07T11:28:36;10.60;;;4.13;;
78169;SDS011;67412;49.892;14.490;2023-05-07T11:31:03;8.85;;;3.78;;
78169;SDS011;67412;49.892;14.490;2023-05-07T11:33:29;9.88;;;3.85;;
78169;SDS011;67412;49.892;14.490;2023-05-07T11:35:55;10.43;;;4.38;;
78169;SDS011;67412;49.892;14.490;2023-05-07T11:38:21;9.63;;;4.38;;
78169;SDS011;67412;49.892;14.490;2023-05-07T11:43:17;9.98;;;4.38;;
78169;SDS011;67412;49.892;14.490;2023-05-07T11:45:44;10.25;;;4.85;;
78169;SDS011;67412;49.892;14.490;2023-05-07T11:48:11;9.88;;;4.20;;
78169;SDS011;67412;49.892;14.490;2023-05-07T11:50:48;8.35;;;3.60;;
78169;SDS011;67412;49.892;14.490;2023-05-07T11:53:16;11.20;;;4.28;;
78169;SDS011;67412;49.892;14.490;2023-05-07T11:55:42;9.80;;;4.00;;
78169;SDS011;67412;49.892;14.490;2023-05-07T11:58:08;9.57;;;4.05;;
78169;SDS011;67412;49.892;14.490;2023-05-07T12:00:35;8.93;;;4.22;;
78169;SDS011;67412;49.892;14.490;2023-05-07T12:03:04;8.00;;;3.40;;
78169;SDS011;67412;49.892;14.490;2023-05-07T12:05:30;9.30;;;3.80;;
78169;SDS011;67412;49.892;14.490;2023-05-07T12:07:56;9.40;;;4.35;;
78169;SDS011;67412;49.892;14.490;2023-05-07T12:10:24;11.52;;;5.03;;
78169;SDS011;67412;49.892;14.490;2023-05-07T12:12:50;8.98;;;4.63;;
78169;SDS011;67412;49.892;14.490;2023-05-07T12:15:15;7.50;;;3.80;;
78169;SDS011;67412;49.892;14.490;2023-05-07T12:17:42;8.77;;;4.18;;
78169;SDS011;67412;49.892;14.490;2023-05-07T12:20:07;9.10;;;4.25;;
78169;SDS011;67412;49.892;14.490;2023-05-07T12:22:34;9.88;;;4.40;;
78169;SDS011;67412;49.892;14.490;2023-05-07T12:25:00;9.00;;;4.15;;
78169;SDS011;67412;49.892;14.490;2023-05-07T12:27:25;10.60;;;4.55;;
78169;SDS011;67412;49.892;14.490;2023-05-07T12:29:51;10.07;;;4.15;;
78169;SDS011;67412;49.892;14.490;2023-05-07T12:32:17;10.25;;;4.20;;
78169;SDS011;67412;49.892;14.490;2023-05-07T12:34:44;8.90;;;4.53;;
78169;SDS011;67412;49.892;14.490;2023-05-07T12:37:10;7.68;;;3.70;;
78169;SDS011;67412;49.892;14.490;2023-05-07T12:39:35;7.70;;;3.65;;
78169;SDS011;67412;49.892;14.490;2023-05-07T12:42:01;8.57;;;3.58;;
78169;SDS011;67412;49.892;14.490;2023-05-07T12:44:30;7.07;;;3.35;;
78169;SDS011;67412;49.892;14.490;2023-05-07T12:46:57;7.82;;;3.05;;
78169;SDS011;67412;49.892;14.490;2023-05-07T12:49:23;7.55;;;3.47;;
78169;SDS011;67412;49.892;14.490;2023-05-07T12:51:50;7.88;;;2.90;;
78169;SDS011;67412;49.892;14.490;2023-05-07T12:54:28;7.97;;;3.60;;
78169;SDS011;67412;49.892;14.490;2023-05-07T12:57:01;8.85;;;3.53;;
78169;SDS011;67412;49.892;14.490;2023-05-07T12:59:33;6.68;;;2.78;;
78169;SDS011;67412;49.892;14.490;2023-05-07T13:02:02;7.60;;;2.88;;
78169;SDS011;67412;49.892;14.490;2023-05-07T13:04:28;7.45;;;3.28;;
78169;SDS011;67412;49.892;14.490;2023-05-07T13:06:53;6.88;;;2.83;;
78169;SDS011;67412;49.892;14.490;2023-05-07T13:09:18;5.78;;;2.90;;
78169;SDS011;67412;49.892;14.490;2023-05-07T13:11:44;5.90;;;2.53;;
78169;SDS011;67412;49.892;14.490;2023-05-07T13:14:09;6.40;;;2.75;;
78169;SDS011;67412;49.892;14.490;2023-05-07T13:16:34;7.45;;;2.88;;
78169;SDS011;67412;49.892;14.490;2023-05-07T13:19:00;4.63;;;2.17;;
78169;SDS011;67412;49.892;14.490;2023-05-07T13:21:25;5.25;;;2.40;;
78169;SDS011;67412;49.892;14.490;2023-05-07T13:23:51;5.97;;;2.97;;
78169;SDS011;67412;49.892;14.490;2023-05-07T13:26:17;5.78;;;2.40;;
78169;SDS011;67412;49.892;14.490;2023-05-07T13:28:42;7.10;;;2.83;;
78169;SDS011;67412;49.892;14.490;2023-05-07T13:31:08;7.05;;;2.90;;
78169;SDS011;67412;49.892;14.490;2023-05-07T13:33:34;8.05;;;3.45;;
78169;SDS011;67412;49.892;14.490;2023-05-07T13:35:59;7.30;;;3.33;;
78169;SDS011;67412;49.892;14.490;2023-05-07T13:38:25;6.05;;;3.03;;
78169;SDS011;67412;49.892;14.490;2023-05-07T13:40:51;7.03;;;3.20;;
78169;SDS011;67412;49.892;14.490;2023-05-07T13:43:16;6.90;;;3.10;;
78169;SDS011;67412;49.892;14.490;2023-05-07T13:45:43;6.95;;;3.10;;
78169;SDS011;67412;49.892;14.490;2023-05-07T13:48:09;6.90;;;3.30;;
78169;SDS011;67412;49.892;14.490;2023-05-07T13:50:34;9.23;;;3.30;;
78169;SDS011;67412;49.892;14.490;2023-05-07T13:53:00;7.20;;;3.10;;
78169;SDS011;67412;49.892;14.490;2023-05-07T13:55:25;6.05;;;2.72;;
78169;SDS011;67412;49.892;14.490;2023-05-07T13:57:57;6.28;;;3.05;;
78169;SDS011;67412;49.892;14.490;2023-05-07T14:00:27;6.90;;;2.95;;
78169;SDS011;67412;49.892;14.490;2023-05-07T14:02:54;6.22;;;2.42;;
78169;SDS011;67412;49.892;14.490;2023-05-07T14:05:21;6.88;;;2.33;;
78169;SDS011;67412;49.892;14.490;2023-05-07T14:07:48;6.78;;;2.55;;
78169;SDS011;67412;49.892;14.490;2023-05-07T14:10:16;6.70;;;2.67;;
78169;SDS011;67412;49.892;14.490;2023-05-07T14:12:42;7.43;;;3.13;;
78169;SDS011;67412;49.892;14.490;2023-05-07T14:15:07;7.03;;;2.88;;
78169;SDS011;67412;49.892;14.490;2023-05-07T14:17:33;7.07;;;3.20;;
78169;SDS011;67412;49.892;14.490;2023-05-07T14:19:58;6.10;;;2.97;;
78169;SDS011;67412;49.892;14.490;2023-05-07T14:22:23;6.70;;;3.22;;
78169;SDS011;67412;49.892;14.490;2023-05-07T14:24:49;6.13;;;2.75;;
78169;SDS011;67412;49.892;14.490;2023-05-07T14:27:14;7.13;;;2.83;;
78169;SDS011;67412;49.892;14.490;2023-05-07T14:29:40;6.80;;;3.30;;
78169;SDS011;67412;49.892;14.490;2023-05-07T14:32:07;7.32;;;3.40;;
78169;SDS011;67412;49.892;14.490;2023-05-07T14:34:32;7.00;;;2.92;;
78169;SDS011;67412;49.892;14.490;2023-05-07T14:36:59;6.35;;;3.00;;
78169;SDS011;67412;49.892;14.490;2023-05-07T14:39:24;5.90;;;2.75;;
78169;SDS011;67412;49.892;14.490;2023-05-07T14:41:50;7.15;;;3.25;;
78169;SDS011;67412;49.892;14.490;2023-05-07T14:44:15;7.03;;;3.28;;
78169;SDS011;67412;49.892;14.490;2023-05-07T14:46:41;6.20;;;2.58;;